Time;durP1;ratioP1;P1;durP2;ratioP2;P2;SDS_P1;SDS_P2;PMS_P1;PMS_P2;Temp;Humidity;BMP_temperature;BMP_pressure;BME280_temperature;BME280_humidity;BME280_pressure;Samples;Min_cycle;Max_cycle;Signal;HPM_P1;HPM_P2
2023/08/22 00:00:19;;;;;;;5.18;1.92;;;18.80;99.90;;;;;;5053667;28;20041;-65
2023/08/22 00:02:48;;;;;;;5.13;2.00;;;18.80;99.90;;;;;;5020541;28;20044;-65
2023/08/22 00:05:28;;;;;;;8.60;3.95;;;18.80;99.90;;;;;;5020994;28;20045;-65
2023/08/22 00:07:54;;;;;;;7.55;4.32;;;18.80;99.90;;;;;;5036980;28;20052;-64
2023/08/22 00:10:23;;;;;;;5.72;2.10;;;18.70;99.90;;;;;;5020415;28;20045;-65
2023/08/22 00:13:07;;;;;;;5.47;2.10;;;18.60;99.90;;;;;;5036862;28;20098;-66
2023/08/22 00:15:33;;;;;;;5.60;2.45;;;18.50;99.90;;;;;;5053746;28;20037;-65
2023/08/22 00:17:58;;;;;;;8.38;4.22;;;18.60;99.90;;;;;;5036820;28;20094;-66
2023/08/22 00:20:28;;;;;;;5.80;2.75;;;18.50;99.90;;;;;;5036959;28;20094;-66
2023/08/22 00:22:54;;;;;;;5.97;3.30;;;18.40;99.90;;;;;;5053545;28;20037;-66
2023/08/22 00:25:19;;;;;;;5.38;2.60;;;18.40;99.90;;;;;;5036887;28;20381;-66
2023/08/22 00:27:45;;;;;;;5.68;1.90;;;18.40;99.90;;;;;;5036876;28;20083;-65
2023/08/22 00:30:14;;;;;;;5.57;1.85;;;18.40;99.90;;;;;;5036109;28;20130;-66
2023/08/22 00:32:40;;;;;;;9.00;4.60;;;18.40;99.90;;;;;;5036408;28;20089;-65
2023/08/22 00:35:06;;;;;;;5.68;2.35;;;18.40;99.90;;;;;;5053798;28;20124;-65
2023/08/22 00:37:32;;;;;;;7.80;3.03;;;18.40;99.90;;;;;;5036416;28;20091;-65
2023/08/22 00:40:00;;;;;;;5.18;2.25;;;18.40;99.90;;;;;;5019950;28;20041;-64
2023/08/22 00:42:25;;;;;;;6.25;2.38;;;18.40;99.90;;;;;;5019737;28;20033;-66
2023/08/22 00:44:53;;;;;;;5.85;2.28;;;18.40;99.90;;;;;;5036243;28;20037;-66
2023/08/22 00:47:29;;;;;;;5.65;2.33;;;18.40;99.90;;;;;;5036593;28;20068;-72
2023/08/22 00:50:04;;;;;;;5.65;2.40;;;18.40;99.90;;;;;;5035815;28;20554;-73
2023/08/22 00:52:34;;;;;;;8.60;3.70;;;18.40;99.90;;;;;;5036061;28;20041;-71
2023/08/22 00:55:07;;;;;;;7.35;2.80;;;18.40;99.90;;;;;;5053937;28;20119;-73
2023/08/22 00:57:33;;;;;;;6.00;2.25;;;18.40;99.90;;;;;;5036240;28;20037;-71
2023/08/22 01:00:06;;;;;;;5.85;2.70;;;18.50;99.90;;;;;;5036213;28;20076;-73
2023/08/22 01:02:35;;;;;;;8.35;4.55;;;18.50;99.90;;;;;;5019875;28;20036;-73
2023/08/22 01:05:01;;;;;;;8.65;4.00;;;18.50;99.90;;;;;;5036090;28;20047;-74
2023/08/22 01:07:45;;;;;;;9.07;4.10;;;18.40;99.90;;;;;;5036044;28;20048;-73
2023/08/22 01:10:13;;;;;;;9.80;4.65;;;18.40;99.90;;;;;;5019517;28;20041;-73
2023/08/22 01:12:54;;;;;;;8.60;4.00;;;18.30;99.90;;;;;;5019335;28;20060;-72
2023/08/22 01:15:33;;;;;;;10.38;4.28;;;18.20;99.90;;;;;;5035664;28;20041;-73
2023/08/22 01:18:03;;;;;;;10.30;4.30;;;18.20;99.90;;;;;;5035940;28;20086;-74
2023/08/22 01:20:56;;;;;;;8.27;3.53;;;18.10;99.90;;;;;;5036330;28;20102;-74
2023/08/22 01:23:22;;;;;;;7.85;3.88;;;18.10;99.90;;;;;;5035770;28;20037;-73
2023/08/22 01:25:58;;;;;;;8.27;3.05;;;18.00;99.90;;;;;;5053870;28;20039;-74
2023/08/22 01:28:58;;;;;;;8.32;3.60;;;18.00;99.90;;;;;;5019502;28;20124;-71
2023/08/22 01:31:48;;;;;;;6.35;3.60;;;18.00;99.90;;;;;;5032925;28;20148;-74
2023/08/22 01:34:27;;;;;;;7.70;3.35;;;18.00;99.90;;;;;;5019207;28;20110;-73
2023/08/22 01:36:57;;;;;;;8.38;4.45;;;18.00;99.90;;;;;;5018923;28;20163;-73
2023/08/22 01:39:26;;;;;;;6.38;2.80;;;17.90;99.90;;;;;;5019306;28;20068;-73
2023/08/22 01:41:55;;;;;;;6.20;3.33;;;17.90;99.90;;;;;;5051732;28;20368;-74
2023/08/22 01:44:23;;;;;;;6.30;2.33;;;17.90;99.90;;;;;;5052276;28;20075;-71
2023/08/22 01:46:50;;;;;;;6.05;2.60;;;17.90;99.90;;;;;;5035727;28;20140;-71
2023/08/22 01:49:22;;;;;;;5.15;2.20;;;17.90;99.90;;;;;;5035403;28;20099;-73
2023/08/22 01:51:48;;;;;;;6.68;2.60;;;18.00;99.90;;;;;;5035725;28;20057;-73
2023/08/22 01:54:17;;;;;;;7.22;3.63;;;18.00;99.90;;;;;;5035421;28;20080;-73
2023/08/22 01:56:45;;;;;;;6.95;3.22;;;18.00;99.90;;;;;;5035256;28;20044;-71
2023/08/22 01:59:12;;;;;;;5.68;2.10;;;18.00;99.90;;;;;;5002753;28;20041;-72
2023/08/22 02:01:37;;;;;;;7.30;3.67;;;18.00;99.90;;;;;;5035329;28;20513;-73
2023/08/22 02:04:04;;;;;;;7.47;3.33;;;18.00;99.90;;;;;;5018955;28;20041;-72
2023/08/22 02:06:32;;;;;;;5.20;2.03;;;17.90;99.90;;;;;;5034969;28;20037;-72
2023/08/22 02:08:58;;;;;;;5.47;2.50;;;17.90;99.90;;;;;;5034859;28;20040;-73
2023/08/22 02:11:25;;;;;;;6.05;2.17;;;17.90;99.90;;;;;;5035157;28;20037;-74
2023/08/22 02:13:54;;;;;;;8.27;3.35;;;17.90;99.90;;;;;;5019118;28;20052;-71
2023/08/22 02:16:20;;;;;;;6.00;2.33;;;17.90;99.90;;;;;;5035314;28;20044;-72
2023/08/22 02:18:46;;;;;;;6.10;2.30;;;17.90;99.90;;;;;;5018556;28;20482;-73
2023/08/22 02:21:12;;;;;;;4.82;2.10;;;17.90;99.90;;;;;;5018381;28;20037;-73
2023/08/22 02:23:38;;;;;;;5.50;2.15;;;17.90;99.90;;;;;;5034968;28;20538;-73
2023/08/22 02:26:04;;;;;;;5.13;1.95;;;17.90;99.90;;;;;;5051738;28;20082;-72
2023/08/22 02:28:29;;;;;;;5.43;2.08;;;17.80;99.90;;;;;;5051681;28;20432;-71
2023/08/22 02:30:56;;;;;;;4.80;2.10;;;17.70;99.90;;;;;;5035082;28;20045;-73
2023/08/22 02:33:22;;;;;;;5.70;1.88;;;17.60;99.90;;;;;;5034806;28;20041;-72
2023/08/22 02:35:49;;;;;;;4.45;1.98;;;17.50;99.90;;;;;;5034818;28;20045;-72
2023/08/22 02:38:19;;;;;;;5.93;1.80;;;17.50;99.90;;;;;;5034785;28;20064;-73
2023/08/22 02:40:45;;;;;;;5.80;2.00;;;17.50;99.90;;;;;;5018472;28;20037;-71
2023/08/22 02:43:11;;;;;;;4.10;1.67;;;17.50;99.90;;;;;;5035023;28;20483;-73
2023/08/22 02:45:37;;;;;;;5.43;1.60;;;17.50;99.90;;;;;;5034700;28;20037;-72
2023/08/22 02:48:04;;;;;;;5.45;1.63;;;17.50;99.90;;;;;;5034986;28;20428;-72
2023/08/22 02:50:29;;;;;;;5.95;1.83;;;17.50;99.90;;;;;;5031186;28;20066;-74
2023/08/22 02:52:55;;;;;;;5.68;1.85;;;17.60;99.90;;;;;;5032535;28;20454;-72
2023/08/22 02:55:21;;;;;;;5.30;1.70;;;17.60;99.90;;;;;;5035118;28;20107;-72
2023/08/22 02:57:47;;;;;;;4.57;1.75;;;17.60;99.90;;;;;;5034840;28;20092;-72
2023/08/22 03:00:13;;;;;;;6.65;1.90;;;17.60;99.90;;;;;;5051576;28;20044;-74
2023/08/22 03:02:47;;;;;;;4.72;1.50;;;17.60;99.90;;;;;;5019090;28;20037;-73
2023/08/22 03:05:22;;;;;;;5.65;1.60;;;17.60;99.90;;;;;;5034782;28;20033;-72
2023/08/22 03:07:48;;;;;;;5.88;2.17;;;17.60;99.90;;;;;;5035332;28;20049;-65
2023/08/22 03:10:14;;;;;;;6.25;2.20;;;17.70;99.90;;;;;;5034834;28;20048;-65
2023/08/22 03:12:40;;;;;;;6.00;1.83;;;17.60;99.90;;;;;;5034960;28;20038;-65
2023/08/22 03:15:07;;;;;;;5.88;1.65;;;17.70;99.90;;;;;;5034753;28;20042;-65
2023/08/22 03:17:33;;;;;;;3.97;1.40;;;17.60;99.90;;;;;;5001982;28;20489;-65
2023/08/22 03:19:58;;;;;;;6.38;1.40;;;17.70;99.90;;;;;;5034863;28;20099;-65
2023/08/22 03:22:24;;;;;;;5.25;1.60;;;17.70;99.90;;;;;;5034545;28;20105;-64
2023/08/22 03:24:54;;;;;;;7.18;2.42;;;17.70;99.90;;;;;;5034728;28;20041;-66
2023/08/22 03:27:20;;;;;;;7.10;2.53;;;17.70;99.90;;;;;;5034462;28;20058;-66
2023/08/22 03:29:46;;;;;;;7.25;2.53;;;17.70;99.90;;;;;;5034799;28;20045;-65
2023/08/22 03:32:12;;;;;;;6.10;2.42;;;17.60;99.90;;;;;;5034359;28;20413;-65
2023/08/22 03:34:37;;;;;;;5.65;2.08;;;17.60;99.90;;;;;;5034537;28;20049;-64
2023/08/22 03:37:04;;;;;;;6.90;2.55;;;17.60;99.90;;;;;;5050821;28;20119;-65
2023/08/22 03:39:29;;;;;;;6.70;2.35;;;17.50;99.90;;;;;;5034451;28;20041;-65
2023/08/22 03:41:55;;;;;;;4.70;2.05;;;17.50;99.90;;;;;;5050962;28;20111;-65
2023/08/22 03:44:21;;;;;;;6.57;2.40;;;17.50;99.90;;;;;;5050803;28;20084;-64
2023/08/22 03:46:47;;;;;;;8.18;2.65;;;17.50;99.90;;;;;;5034069;28;20120;-64
2023/08/22 03:49:16;;;;;;;7.45;2.60;;;17.50;99.90;;;;;;5017696;28;20037;-64
2023/08/22 03:51:50;;;;;;;6.88;2.50;;;17.50;99.90;;;;;;5017231;28;20053;-64
2023/08/22 03:54:19;;;;;;;6.40;2.42;;;17.40;99.90;;;;;;5034113;28;20041;-64
2023/08/22 03:56:45;;;;;;;6.63;2.53;;;17.40;99.90;;;;;;5034186;28;20049;-64
2023/08/22 03:59:11;;;;;;;5.82;2.30;;;17.40;99.90;;;;;;5017651;28;20068;-64
2023/08/22 04:01:37;;;;;;;7.00;2.60;;;17.40;99.90;;;;;;5034116;28;20136;-65
2023/08/22 04:04:03;;;;;;;6.35;2.67;;;17.30;99.90;;;;;;5033691;28;20079;-65
2023/08/22 04:06:28;;;;;;;5.65;2.30;;;17.30;99.90;;;;;;5033599;28;20052;-65
2023/08/22 04:08:54;;;;;;;5.72;2.20;;;17.30;99.90;;;;;;5033974;28;20041;-65
2023/08/22 04:11:20;;;;;;;5.65;2.30;;;17.30;99.90;;;;;;5033555;28;20473;-64
2023/08/22 04:13:46;;;;;;;6.32;2.30;;;17.30;99.90;;;;;;5033738;28;20045;-65
2023/08/22 04:16:11;;;;;;;7.07;2.70;;;17.20;99.90;;;;;;5033773;28;20044;-65
2023/08/22 04:18:37;;;;;;;5.25;2.10;;;17.30;99.90;;;;;;5033598;28;20412;-65
2023/08/22 04:21:03;;;;;;;6.18;2.60;;;17.30;99.90;;;;;;5033581;28;20037;-65
2023/08/22 04:23:29;;;;;;;6.38;2.55;;;17.30;99.90;;;;;;5033784;28;20120;-65
2023/08/22 04:25:55;;;;;;;7.32;3.38;;;17.30;99.90;;;;;;5033538;28;20116;-64
2023/08/22 04:28:21;;;;;;;7.85;3.85;;;17.20;99.90;;;;;;5033378;28;20076;-64
2023/08/22 04:30:46;;;;;;;6.57;3.00;;;17.20;99.90;;;;;;5017081;28;20091;-66
2023/08/22 04:33:12;;;;;;;5.30;2.63;;;17.20;99.90;;;;;;5016740;28;20045;-65
2023/08/22 04:35:41;;;;;;;7.15;2.97;;;17.10;99.90;;;;;;5033168;28;20047;-65
2023/08/22 04:38:07;;;;;;;6.78;2.95;;;17.10;99.90;;;;;;5049631;28;20045;-63
2023/08/22 04:40:34;;;;;;;8.13;4.85;;;17.10;99.90;;;;;;5033361;28;20045;-65
2023/08/22 04:42:59;;;;;;;6.82;2.80;;;17.10;99.90;;;;;;5016798;28;20037;-65
2023/08/22 04:45:31;;;;;;;7.65;3.20;;;17.10;99.90;;;;;;5033052;28;20479;-64
2023/08/22 04:48:00;;;;;;;;;;;17.00;99.90;;;;;;5033608;28;20038;-65
2023/08/22 04:50:26;;;;;;;10.85;6.25;;;17.00;99.90;;;;;;5037888;28;19970;-65
2023/08/22 04:52:51;;;;;;;9.63;6.43;;;17.00;99.90;;;;;;5036083;28;20048;-65
2023/08/22 04:55:17;;;;;;;11.10;7.25;;;16.90;99.90;;;;;;5019787;28;20039;-64
2023/08/22 04:57:46;;;;;;;10.63;7.35;;;16.90;99.90;;;;;;5052635;28;20049;-64
2023/08/22 05:00:13;;;;;;;11.55;6.93;;;16.80;99.90;;;;;;5035908;28;20037;-64
2023/08/22 05:02:39;;;;;;;11.77;7.25;;;16.80;99.90;;;;;;5054039;28;20098;-63
2023/08/22 05:05:07;;;;;;;12.13;7.57;;;16.70;99.90;;;;;;5036260;28;20498;-65
2023/08/22 05:07:32;;;;;;;14.90;8.80;;;16.70;99.90;;;;;;5035851;28;20045;-64
2023/08/22 05:10:02;;;;;;;14.35;7.38;;;16.70;99.90;;;;;;5052696;28;20615;-65
2023/08/22 05:12:27;;;;;;;15.07;10.60;;;16.60;99.90;;;;;;5035917;28;20080;-64
2023/08/22 05:14:55;;;;;;;16.73;10.98;;;16.60;99.90;;;;;;5035706;28;20067;-64
2023/08/22 05:17:21;;;;;;;13.23;8.90;;;16.60;99.90;;;;;;5035571;28;20151;-66
2023/08/22 05:19:47;;;;;;;14.30;10.90;;;16.60;99.90;;;;;;5036146;28;20543;-64
2023/08/22 05:22:13;;;;;;;14.88;9.57;;;16.60;99.90;;;;;;5035838;28;20044;-63
2023/08/22 05:24:38;;;;;;;13.52;10.32;;;16.60;99.90;;;;;;5019194;28;20044;-65
2023/08/22 05:27:07;;;;;;;11.85;9.18;;;16.60;99.90;;;;;;5035615;28;20451;-63
2023/08/22 05:29:32;;;;;;;14.07;11.02;;;16.60;99.90;;;;;;5035824;28;20132;-64
2023/08/22 05:31:59;;;;;;;16.40;11.18;;;16.60;99.90;;;;;;5019021;28;20091;-65
2023/08/22 05:34:27;;;;;;;15.27;12.43;;;16.60;99.90;;;;;;5052083;28;20068;-64
2023/08/22 05:36:53;;;;;;;14.73;10.90;;;16.60;99.90;;;;;;5018948;28;20083;-64
2023/08/22 05:39:19;;;;;;;16.70;12.90;;;16.60;99.90;;;;;;5035646;28;20037;-65
2023/08/22 05:41:45;;;;;;;17.85;12.73;;;16.70;99.90;;;;;;5019132;28;20132;-64
2023/08/22 05:44:11;;;;;;;18.67;12.98;;;16.70;99.90;;;;;;5053525;28;20124;-65
2023/08/22 05:46:37;;;;;;;19.38;14.32;;;16.70;99.90;;;;;;5035281;28;20466;-64
2023/08/22 05:49:03;;;;;;;18.30;12.85;;;16.80;99.90;;;;;;5035348;28;20044;-65
2023/08/22 05:51:29;;;;;;;18.70;14.13;;;16.90;99.90;;;;;;5015416;28;20390;-65
2023/08/22 05:53:59;;;;;;;18.75;13.40;;;16.90;99.90;;;;;;5032237;28;20721;-65
2023/08/22 05:56:24;;;;;;;18.88;12.68;;;17.10;99.90;;;;;;5016348;28;20033;-64
2023/08/22 05:58:50;;;;;;;17.80;13.13;;;17.30;99.90;;;;;;5031778;28;20132;-65
2023/08/22 06:01:16;;;;;;;15.77;11.90;;;17.50;99.90;;;;;;5016030;28;20042;-65
2023/08/22 06:03:53;;;;;;;17.83;13.05;;;18.00;99.90;;;;;;5015734;28;20041;-63
2023/08/22 06:06:22;;;;;;;16.88;11.20;;;18.30;99.90;;;;;;5015268;28;20038;-65
2023/08/22 06:08:50;;;;;;;16.08;12.07;;;18.70;99.90;;;;;;5031750;28;20125;-65
2023/08/22 06:11:34;;;;;;;16.27;10.95;;;19.20;99.90;;;;;;5032071;28;20485;-64
2023/08/22 06:14:00;;;;;;;14.77;10.40;;;20.00;99.90;;;;;;5031736;28;20045;-65
2023/08/22 06:16:25;;;;;;;14.85;9.63;;;20.70;99.90;;;;;;5032178;28;20064;-66
2023/08/22 06:18:51;;;;;;;13.32;9.50;;;21.10;99.90;;;;;;5031588;28;20405;-65
2023/08/22 06:21:17;;;;;;;17.60;10.43;;;21.70;99.90;;;;;;5015188;28;20033;-66
2023/08/22 06:23:43;;;;;;;13.82;9.25;;;21.80;99.90;;;;;;5031785;28;20045;-64
2023/08/22 06:26:13;;;;;;;13.48;9.82;;;21.60;99.90;;;;;;5048446;28;20033;-65
2023/08/22 06:28:40;;;;;;;14.35;9.50;;;21.90;99.90;;;;;;5033949;28;20057;-65
2023/08/22 06:31:06;;;;;;;13.65;8.77;;;22.00;99.90;;;;;;5035579;28;20049;-65
2023/08/22 06:33:35;;;;;;;13.57;9.80;;;21.90;99.90;;;;;;5019155;28;20048;-64
2023/08/22 06:36:01;;;;;;;15.20;9.60;;;21.80;99.90;;;;;;5019185;28;20453;-65
2023/08/22 06:38:27;;;;;;;15.95;10.20;;;21.70;99.90;;;;;;5035454;28;20124;-65
2023/08/22 06:40:53;;;;;;;16.00;9.77;;;21.50;99.90;;;;;;5018943;28;20040;-66
2023/08/22 06:43:19;;;;;;;15.15;9.90;;;21.50;99.90;;;;;;5035231;28;20095;-64
2023/08/22 06:45:45;;;;;;;14.07;9.85;;;21.30;99.90;;;;;;5019013;28;20041;-65
2023/08/22 06:48:11;;;;;;;14.80;9.98;;;21.20;99.90;;;;;;5035117;28;20076;-65
2023/08/22 06:50:36;;;;;;;15.75;10.73;;;21.30;99.90;;;;;;5038267;28;20056;-64
2023/08/22 06:53:02;;;;;;;13.55;9.60;;;21.50;99.90;;;;;;5038727;28;20075;-64
2023/08/22 06:55:28;;;;;;;14.15;10.55;;;21.60;99.90;;;;;;5038348;28;20049;-65
2023/08/22 06:57:54;;;;;;;13.32;8.82;;;21.90;99.90;;;;;;5038279;28;20052;-65
2023/08/22 07:00:21;;;;;;;13.88;8.70;;;22.10;99.90;;;;;;5038622;28;20508;-65
2023/08/22 07:02:59;;;;;;;13.20;8.88;;;22.30;99.90;;;;;;5038499;28;20485;-64
2023/08/22 07:05:25;;;;;;;13.68;9.98;;;22.50;99.90;;;;;;5055354;28;20041;-65
2023/08/22 07:07:54;;;;;;;13.35;8.60;;;22.50;99.90;;;;;;5038378;28;20396;-65
2023/08/22 07:10:29;;;;;;;13.02;8.50;;;22.50;99.90;;;;;;5038221;28;20048;-65
2023/08/22 07:13:04;;;;;;;13.35;8.98;;;22.60;99.90;;;;;;5054667;28;20040;-64
2023/08/22 07:15:29;;;;;;;15.38;9.57;;;22.80;99.90;;;;;;5038344;28;20493;-65
2023/08/22 07:17:56;;;;;;;13.23;8.90;;;23.00;99.90;;;;;;5055980;28;20043;-63
2023/08/22 07:20:21;;;;;;;14.88;8.50;;;23.10;99.90;;;;;;5037944;28;20033;-64
2023/08/22 07:22:53;;;;;;;11.73;8.00;;;23.50;99.90;;;;;;5021730;28;20083;-66
2023/08/22 07:25:25;;;;;;;13.88;7.88;;;23.90;99.90;;;;;;5037814;28;20041;-66
2023/08/22 07:27:50;;;;;;;14.23;8.85;;;24.40;99.90;;;;;;5038040;28;20084;-64
2023/08/22 07:30:19;;;;;;;11.65;7.78;;;25.00;99.90;;;;;;5021224;28;20084;-63
2023/08/22 07:32:45;;;;;;;13.15;7.80;;;25.10;99.90;;;;;;5054476;28;20400;-64
2023/08/22 07:35:17;;;;;;;12.57;8.32;;;25.40;99.90;;;;;;5054433;28;20040;-64
2023/08/22 07:37:49;;;;;;;12.98;6.72;;;25.30;99.90;;;;;;5037507;28;20382;-66
2023/08/22 07:40:24;;;;;;;12.55;7.57;;;25.00;99.90;;;;;;5053249;28;20520;-64
2023/08/22 07:42:56;;;;;;;10.32;6.35;;;25.00;99.90;;;;;;5054338;28;20076;-64
2023/08/22 07:45:23;;;;;;;10.02;6.68;;;25.10;99.90;;;;;;5054091;28;20107;-65
2023/08/22 07:47:48;;;;;;;9.38;5.55;;;25.30;99.90;;;;;;5037855;28;20505;-65
2023/08/22 07:50:14;;;;;;;11.07;5.78;;;25.80;99.90;;;;;;5053956;28;20051;-64
2023/08/22 07:52:40;;;;;;;10.88;6.22;;;26.50;99.90;;;;;;5033997;28;20111;-64
2023/08/22 07:55:06;;;;;;;10.82;5.97;;;26.40;99.90;;;;;;5034105;28;20033;-64
2023/08/22 07:57:38;;;;;;;9.00;5.10;;;26.30;99.90;;;;;;5033728;28;20064;-66
2023/08/22 08:00:11;;;;;;;10.27;5.70;;;26.30;99.90;;;;;;5050882;28;20041;-64
2023/08/22 08:02:38;;;;;;;9.38;5.05;;;26.60;99.90;;;;;;5034091;28;20076;-66
2023/08/22 08:05:05;;;;;;;11.75;4.72;;;26.80;99.90;;;;;;5033821;28;20037;-65
2023/08/22 08:07:30;;;;;;;9.48;5.40;;;26.90;99.90;;;;;;5017575;28;20046;-64
2023/08/22 08:09:56;;;;;;;9.00;4.82;;;26.80;99.90;;;;;;5033885;28;20088;-66
2023/08/22 08:12:26;;;;;;;10.50;4.50;;;26.70;99.50;;;;;;5035312;28;20397;-66
2023/08/22 08:14:52;;;;;;;8.55;4.38;;;26.30;99.50;;;;;;5033558;28;20037;-64
2023/08/22 08:17:19;;;;;;;9.73;4.30;;;26.00;99.40;;;;;;5033908;28;20533;-65
2023/08/22 08:19:48;;;;;;;8.93;3.90;;;25.70;99.40;;;;;;5017323;28;20041;-66
2023/08/22 08:22:17;;;;;;;9.07;3.63;;;25.60;99.40;;;;;;5048362;28;20060;-65
2023/08/22 08:24:43;;;;;;;6.82;3.40;;;25.50;99.80;;;;;;5033344;28;20497;-64
2023/08/22 08:27:15;;;;;;;8.55;3.17;;;25.40;99.70;;;;;;5033445;28;20049;-65
2023/08/22 08:29:41;;;;;;;9.55;3.33;;;25.30;99.50;;;;;;5017238;28;20073;-64
2023/08/22 08:32:07;;;;;;;7.38;3.10;;;25.10;99.80;;;;;;5033229;28;20131;-66
2023/08/22 08:34:33;;;;;;;6.63;2.90;;;25.00;99.90;;;;;;5033634;28;20048;-64
2023/08/22 08:36:58;;;;;;;7.13;2.90;;;24.90;99.90;;;;;;5049946;28;20116;-66
2023/08/22 08:39:30;;;;;;;6.72;2.90;;;24.90;99.90;;;;;;5033281;28;20037;-65
2023/08/22 08:42:09;;;;;;;8.77;2.95;;;25.00;99.40;;;;;;5033105;28;20037;-65
2023/08/22 08:44:36;;;;;;;7.82;2.88;;;24.90;99.60;;;;;;5033284;28;20041;-65
2023/08/22 08:47:24;;;;;;;7.47;2.83;;;24.80;99.40;;;;;;5033318;28;20128;-65
2023/08/22 08:49:50;;;;;;;8.07;2.67;;;24.80;99.90;;;;;;5032897;28;20064;-64
2023/08/22 08:52:27;;;;;;;7.15;2.70;;;24.80;99.90;;;;;;5015661;28;20061;-66
2023/08/22 08:54:59;;;;;;;7.80;2.83;;;24.90;99.90;;;;;;5032854;28;20068;-66
2023/08/22 08:57:28;;;;;;;6.82;2.38;;;24.90;99.90;;;;;;5016921;28;20049;-65
2023/08/22 08:59:57;;;;;;;6.68;2.30;;;24.90;99.90;;;;;;5033035;28;20508;-66
2023/08/22 09:02:27;;;;;;;6.43;2.13;;;24.90;99.60;;;;;;5032790;28;20049;-65
2023/08/22 09:04:52;;;;;;;5.65;2.17;;;25.00;99.70;;;;;;5032599;28;20069;-66
2023/08/22 09:07:22;;;;;;;5.40;1.83;;;25.00;99.20;;;;;;5032579;28;20084;-67
2023/08/22 09:09:48;;;;;;;5.57;1.80;;;24.90;99.20;;;;;;5032654;28;20045;-64
2023/08/22 09:12:14;;;;;;;5.72;1.63;;;24.60;98.80;;;;;;5032660;28;20516;-66
2023/08/22 09:14:49;;;;;;;4.53;1.63;;;24.40;98.40;;;;;;5032705;28;20493;-65
2023/08/22 09:17:18;;;;;;;6.50;1.80;;;24.20;98.70;;;;;;5032442;28;20095;-65
2023/08/22 09:19:47;;;;;;;6.32;1.63;;;24.10;99.20;;;;;;5032359;28;20037;-65
2023/08/22 09:22:31;;;;;;;4.45;1.52;;;24.20;99.20;;;;;;5032557;28;20054;-65
2023/08/22 09:24:57;;;;;;;5.07;1.70;;;24.20;99.20;;;;;;5033724;28;20111;-64
2023/08/22 09:27:27;;;;;;;5.30;1.77;;;24.30;99.30;;;;;;5032659;28;20037;-66
2023/08/22 09:30:15;;;;;;;5.50;1.80;;;24.40;98.70;;;;;;5032650;28;20045;-64
2023/08/22 09:32:59;;;;;;;4.60;1.70;;;24.30;98.90;;;;;;5032748;28;20045;-65
2023/08/22 09:35:30;;;;;;;5.07;1.50;;;24.10;98.40;;;;;;5032660;28;20120;-66
2023/08/22 09:38:05;;;;;;;6.97;1.60;;;24.20;99.20;;;;;;5032258;28;20103;-64
2023/08/22 09:40:31;;;;;;;5.20;1.70;;;24.50;98.50;;;;;;5033532;28;20033;-65
2023/08/22 09:42:58;;;;;;;5.30;1.50;;;24.70;98.70;;;;;;5032048;28;20048;-66
2023/08/22 09:45:28;;;;;;;4.28;1.48;;;25.00;97.90;;;;;;5015905;28;20088;-66
2023/08/22 09:47:58;;;;;;;5.43;1.60;;;25.30;98.10;;;;;;5031926;28;20037;-64
2023/08/22 09:50:28;;;;;;;4.18;1.10;;;25.50;96.60;;;;;;5032223;28;20041;-65
2023/08/22 09:52:55;;;;;;;5.97;1.63;;;25.70;96.60;;;;;;5031599;28;20061;-65
2023/08/22 09:55:31;;;;;;;4.72;1.52;;;25.90;96.70;;;;;;5031746;28;20053;-67
2023/08/22 09:57:59;;;;;;;3.90;1.50;;;26.20;96.30;;;;;;5031775;28;20050;-65
2023/08/22 10:00:27;;;;;;;5.35;1.50;;;26.50;95.40;;;;;;5032003;28;20053;-65
2023/08/22 10:02:59;;;;;;;4.60;1.70;;;26.60;95.80;;;;;;5031179;28;20037;-64
2023/08/22 10:05:26;;;;;;;5.43;1.77;;;26.80;96.00;;;;;;5032120;28;20486;-65
2023/08/22 10:07:52;;;;;;;6.32;1.83;;;26.90;93.40;;;;;;5032160;28;20056;-65
2023/08/22 10:10:22;;;;;;;4.60;1.70;;;27.00;93.50;;;;;;5015241;28;20133;-66
2023/08/22 10:12:48;;;;;;;5.20;1.40;;;26.70;93.30;;;;;;5048574;28;20520;-66
2023/08/22 10:15:15;;;;;;;5.95;1.63;;;26.40;93.50;;;;;;5031979;28;20049;-65
2023/08/22 10:17:43;;;;;;;5.43;1.77;;;26.20;93.40;;;;;;5031623;28;20049;-66
2023/08/22 10:20:13;;;;;;;6.35;1.60;;;26.20;94.50;;;;;;5031662;28;20053;-66
2023/08/22 10:22:38;;;;;;;5.80;1.50;;;26.50;95.00;;;;;;5031696;28;20041;-66
2023/08/22 10:25:06;;;;;;;4.82;1.80;;;26.80;94.70;;;;;;5048217;28;20065;-65
2023/08/22 10:27:32;;;;;;;5.03;1.85;;;26.90;92.50;;;;;;5031831;28;20393;-65
2023/08/22 10:30:33;;;;;;;6.20;1.95;;;26.70;92.40;;;;;;5031563;28;20045;-65
2023/08/22 10:33:06;;;;;;;5.93;1.67;;;26.30;91.90;;;;;;5010178;28;20118;-66
2023/08/22 10:35:32;;;;;;;5.38;1.73;;;26.10;93.60;;;;;;5048405;28;20060;-66
2023/08/22 10:38:01;;;;;;;5.38;1.70;;;25.90;93.70;;;;;;5015360;28;20045;-65
2023/08/22 10:40:30;;;;;;;5.90;2.00;;;25.70;93.70;;;;;;5048184;28;20048;-66
2023/08/22 10:43:16;;;;;;;4.97;1.80;;;25.60;93.40;;;;;;5031788;28;20547;-65
2023/08/22 10:45:48;;;;;;;6.05;2.00;;;25.80;95.00;;;;;;5031735;28;20110;-67
2023/08/22 10:48:20;;;;;;;3.97;1.73;;;25.80;94.70;;;;;;5031582;28;20042;-66
2023/08/22 10:50:49;;;;;;;5.68;1.80;;;25.60;94.10;;;;;;5031642;28;20120;-69
2023/08/22 10:53:39;;;;;;;5.78;1.90;;;25.50;94.60;;;;;;5031413;28;20050;-66
2023/08/22 10:56:31;;;;;;;6.28;2.22;;;25.40;95.20;;;;;;5031765;28;20092;-65
2023/08/22 10:59:03;;;;;;;6.85;2.22;;;25.40;95.10;;;;;;5029252;28;20054;-66
2023/08/22 11:01:30;;;;;;;5.63;2.00;;;25.30;95.30;;;;;;5032676;28;20048;-66
2023/08/22 11:03:56;;;;;;;5.40;1.75;;;25.30;95.90;;;;;;5031559;28;20394;-67
2023/08/22 11:06:23;;;;;;;5.97;1.90;;;25.20;96.70;;;;;;5031139;28;20045;-66
2023/08/22 11:08:52;;;;;;;5.22;1.88;;;25.40;96.00;;;;;;5015031;28;20060;-67
2023/08/22 11:11:20;;;;;;;4.40;1.55;;;25.30;94.50;;;;;;5031416;28;20045;-67
2023/08/22 11:13:46;;;;;;;4.57;1.73;;;25.20;94.20;;;;;;5031981;28;20493;-66
2023/08/22 11:16:30;;;;;;;5.25;1.80;;;25.40;94.60;;;;;;5018497;28;20099;-66
2023/08/22 11:19:00;;;;;;;5.32;1.70;;;25.70;94.30;;;;;;5034706;28;20064;-66
2023/08/22 11:21:33;;;;;;;4.30;1.60;;;25.90;94.70;;;;;;5034609;28;20042;-66
2023/08/22 11:23:58;;;;;;;4.65;1.73;;;26.10;93.90;;;;;;5035960;28;20052;-64
2023/08/22 11:26:24;;;;;;;5.13;1.92;;;26.30;93.00;;;;;;5034819;28;20045;-64
2023/08/22 11:28:51;;;;;;;4.93;1.90;;;26.40;93.10;;;;;;5034407;28;20056;-66
2023/08/22 11:31:17;;;;;;;5.35;1.85;;;26.40;92.90;;;;;;5034437;28;20041;-66
2023/08/22 11:33:49;;;;;;;4.68;1.80;;;26.50;92.70;;;;;;5035602;28;20490;-65
2023/08/22 11:36:16;;;;;;;5.97;1.90;;;26.60;93.70;;;;;;5034423;28;20103;-65
2023/08/22 11:38:42;;;;;;;5.60;1.70;;;26.70;93.00;;;;;;5034296;28;20041;-66
2023/08/22 11:41:09;;;;;;;5.78;1.60;;;26.80;92.80;;;;;;5018266;28;20033;-66
2023/08/22 11:43:35;;;;;;;4.38;1.30;;;26.80;92.50;;;;;;5017741;28;20048;-65
2023/08/22 11:46:09;;;;;;;5.13;1.65;;;26.90;91.60;;;;;;5034513;28;20029;-65
2023/08/22 11:48:51;;;;;;;5.30;1.70;;;26.90;92.70;;;;;;5034350;28;20170;-66
2023/08/22 11:51:19;;;;;;;5.43;1.40;;;27.00;93.50;;;;;;5034028;28;20041;-66
2023/08/22 11:53:47;;;;;;;5.85;1.40;;;27.00;91.50;;;;;;5017423;28;20119;-65
2023/08/22 11:56:28;;;;;;;4.72;1.40;;;27.00;90.90;;;;;;5033421;28;20098;-66
2023/08/22 11:58:57;;;;;;;4.20;1.50;;;27.00;91.20;;;;;;5034122;28;20092;-66
2023/08/22 12:01:23;;;;;;;5.70;1.60;;;27.10;91.80;;;;;;5034156;28;20049;-65
2023/08/22 12:03:54;;;;;;;4.40;1.40;;;27.10;91.60;;;;;;5033888;28;20558;-64
2023/08/22 12:06:20;;;;;;;4.53;1.30;;;27.10;91.30;;;;;;5033736;28;20034;-64
2023/08/22 12:08:57;;;;;;;4.43;1.50;;;27.20;91.40;;;;;;5033786;28;20045;-66
2023/08/22 12:11:24;;;;;;;5.40;1.65;;;27.20;90.70;;;;;;5033831;28;20049;-66
2023/08/22 12:13:51;;;;;;;5.20;1.65;;;27.30;90.90;;;;;;5050553;28;20046;-66
2023/08/22 12:16:16;;;;;;;4.70;1.60;;;27.20;91.00;;;;;;5033622;28;20045;-65
2023/08/22 12:18:42;;;;;;;5.90;1.80;;;27.20;91.10;;;;;;5033467;28;20047;-66
2023/08/22 12:21:08;;;;;;;5.97;1.40;;;27.20;91.40;;;;;;5017278;28;20045;-65
2023/08/22 12:23:34;;;;;;;4.72;1.42;;;27.20;91.60;;;;;;5033516;28;20041;-65
2023/08/22 12:26:00;;;;;;;7.28;1.20;;;27.20;91.20;;;;;;5033021;28;20124;-65
2023/08/22 12:28:26;;;;;;;4.30;1.30;;;27.30;90.60;;;;;;5033443;28;20041;-66
2023/08/22 12:30:51;;;;;;;3.92;1.20;;;27.40;89.90;;;;;;5050356;28;20120;-64
2023/08/22 12:33:17;;;;;;;2.95;1.00;;;27.30;89.10;;;;;;5033343;28;20038;-65
2023/08/22 12:35:43;;;;;;;4.45;1.00;;;27.40;89.50;;;;;;5034731;28;20405;-64
2023/08/22 12:38:09;;;;;;;5.45;1.08;;;27.40;88.90;;;;;;5033100;28;20081;-65
2023/08/22 12:40:37;;;;;;;4.30;1.10;;;27.30;88.90;;;;;;5033234;28;20045;-66
2023/08/22 12:43:03;;;;;;;4.38;1.00;;;27.40;88.80;;;;;;5033120;28;20045;-66
2023/08/22 12:45:29;;;;;;;3.97;0.98;;;27.50;87.80;;;;;;5033271;28;20515;-64
2023/08/22 12:47:54;;;;;;;5.88;1.10;;;27.30;84.70;;;;;;5033422;28;20084;-64
2023/08/22 12:50:20;;;;;;;7.18;1.25;;;27.40;87.90;;;;;;5032881;28;20056;-65